createdAt,value
2022-10-31T00:00:02.298Z,56.25
2022-10-31T00:02:28.935Z,53.80
2022-10-31T00:04:55.507Z,61.28
2022-10-31T00:07:22.040Z,64.07
2022-10-31T00:09:48.579Z,68.55
2022-10-31T00:12:15.125Z,67.57
2022-10-31T00:14:41.676Z,70.00
2022-10-31T00:17:08.254Z,68.60
2022-10-31T00:19:34.778Z,68.35
2022-10-31T00:22:01.335Z,68.57
2022-10-31T00:24:28.003Z,69.22
2022-10-31T00:26:54.555Z,65.05
2022-10-31T00:29:21.105Z,59.78
2022-10-31T00:31:47.672Z,65.07
2022-10-31T00:34:14.329Z,70.30
2022-10-31T00:36:40.897Z,66.78
2022-10-31T00:39:07.440Z,70.65
2022-10-31T00:41:34.002Z,74.05
2022-10-31T00:44:00.522Z,65.70
2022-10-31T00:46:27.122Z,83.07
2022-10-31T00:48:53.683Z,80.43
2022-10-31T00:51:20.217Z,79.65
2022-10-31T00:53:46.806Z,70.72
2022-10-31T00:56:13.352Z,79.55
2022-10-31T00:58:39.909Z,79.15
2022-10-31T01:01:06.641Z,75.75
2022-10-31T01:03:33.672Z,82.93
2022-10-31T01:06:05.276Z,75.12
2022-10-31T01:08:31.840Z,75.32
2022-10-31T01:11:03.872Z,79.12
2022-10-31T01:13:30.453Z,79.62
2022-10-31T01:15:59.728Z,78.68
2022-10-31T01:18:26.469Z,83.30
2022-10-31T01:21:00.616Z,79.55
2022-10-31T01:23:27.562Z,75.50
2022-10-31T01:26:23.800Z,73.37
2022-10-31T01:28:52.042Z,75.03
2022-10-31T01:31:19.416Z,70.68
2022-10-31T01:33:46.042Z,68.70
2022-10-31T01:36:23.342Z,78.15
2022-10-31T01:38:50.055Z,64.25
2022-10-31T01:41:18.946Z,70.95
2022-10-31T01:43:56.448Z,72.85
2022-10-31T01:46:28.784Z,64.83
2022-10-31T01:48:55.593Z,71.07
2022-10-31T01:51:24.281Z,61.73
2022-10-31T01:53:50.826Z,62.10
2022-10-31T01:56:17.364Z,61.30
2022-10-31T01:58:43.892Z,58.90
2022-10-31T02:01:10.566Z,60.05
2022-10-31T02:03:37.204Z,62.53
2022-10-31T02:06:03.885Z,57.97
2022-10-31T02:08:31.379Z,53.58
2022-10-31T02:10:58.318Z,49.33
2022-10-31T02:15:56.961Z,47.88
2022-10-31T02:18:23.700Z,44.72
2022-10-31T02:21:02.306Z,45.75
2022-10-31T02:23:41.663Z,42.42
2022-10-31T02:26:39.114Z,46.17
2022-10-31T02:29:50.788Z,51.03
2022-10-31T02:32:39.961Z,39.13
2022-10-31T02:35:11.319Z,37.70
2022-10-31T02:37:56.284Z,40.53
2022-10-31T02:40:44.681Z,39.05
2022-10-31T02:43:15.761Z,37.90
2022-10-31T02:45:46.975Z,36.45
2022-10-31T02:48:16.052Z,34.97
2022-10-31T02:50:43.611Z,33.70
2022-10-31T02:53:10.138Z,32.60
2022-10-31T02:55:36.522Z,28.20
2022-10-31T02:58:11.472Z,29.95
2022-10-31T03:00:47.021Z,30.52
2022-10-31T03:03:24.190Z,28.65
2022-10-31T03:05:57.795Z,28.25
2022-10-31T03:08:37.016Z,32.67
2022-10-31T03:11:04.974Z,29.98
2022-10-31T03:13:50.984Z,32.25
2022-10-31T03:16:28.413Z,28.42
2022-10-31T03:18:56.433Z,28.05
2022-10-31T03:21:46.137Z,29.48
2022-10-31T03:24:13.122Z,29.40
2022-10-31T03:26:42.146Z,30.92
2022-10-31T03:29:09.426Z,28.52
2022-10-31T03:31:51.227Z,28.45
2022-10-31T03:34:17.947Z,26.17
2022-10-31T03:36:44.501Z,30.88
2022-10-31T03:39:13.659Z,28.92
2022-10-31T03:41:42.584Z,27.60
2022-10-31T03:44:11.836Z,37.45
2022-10-31T03:46:38.433Z,31.42
2022-10-31T03:49:05.060Z,34.03
2022-10-31T03:51:38.162Z,35.22
2022-10-31T03:54:10.395Z,37.75
2022-10-31T03:57:21.555Z,33.58
2022-10-31T04:00:12.215Z,40.65
2022-10-31T04:02:44.098Z,37.53
2022-10-31T04:05:11.003Z,37.15
2022-10-31T04:07:43.312Z,40.65
2022-10-31T04:10:12.324Z,39.13
2022-10-31T04:12:39.119Z,40.95
2022-10-31T04:15:06.690Z,40.23
2022-10-31T04:17:36.236Z,40.15
2022-10-31T04:20:02.914Z,40.50
2022-10-31T04:22:29.494Z,41.37
2022-10-31T04:24:56.044Z,38.83
2022-10-31T04:27:22.589Z,41.05
2022-10-31T04:29:50.878Z,41.45
2022-10-31T04:32:17.721Z,43.90
2022-10-31T04:34:44.324Z,40.50
2022-10-31T04:37:10.915Z,42.13
2022-10-31T04:39:37.483Z,42.38
2022-10-31T04:42:04.101Z,42.70
2022-10-31T04:44:30.646Z,39.40
2022-10-31T04:46:57.263Z,45.22
2022-10-31T04:49:23.852Z,46.88
2022-10-31T04:51:50.419Z,44.72
2022-10-31T04:54:16.980Z,42.67
2022-10-31T04:56:43.522Z,39.63
2022-10-31T04:59:10.066Z,41.00
2022-10-31T05:01:36.710Z,39.17
2022-10-31T05:04:03.457Z,39.72
2022-10-31T05:06:30.049Z,39.45
2022-10-31T05:08:56.578Z,42.38
2022-10-31T05:11:23.147Z,41.88
2022-10-31T05:13:49.710Z,44.72
2022-10-31T05:16:16.277Z,42.70
2022-10-31T05:18:42.924Z,40.67
2022-10-31T05:21:09.556Z,43.42
2022-10-31T05:23:36.197Z,36.97
2022-10-31T05:26:02.834Z,40.65
2022-10-31T05:28:29.439Z,41.47
2022-10-31T05:30:56.016Z,39.70
2022-10-31T05:33:22.721Z,40.60
2022-10-31T05:35:49.327Z,38.45
2022-10-31T05:38:16.011Z,40.70
2022-10-31T05:40:42.637Z,39.42
2022-10-31T05:43:09.286Z,37.03
2022-10-31T05:45:35.970Z,38.05
2022-10-31T05:48:04.233Z,37.05
2022-10-31T05:50:31.870Z,35.80
2022-10-31T05:53:04.015Z,36.38
2022-10-31T05:55:30.729Z,39.90
2022-10-31T05:57:57.703Z,40.67
2022-10-31T06:00:25.061Z,37.08
2022-10-31T06:02:59.138Z,37.33
2022-10-31T06:05:25.866Z,37.70
2022-10-31T06:07:54.650Z,35.33
2022-10-31T06:10:22.041Z,40.80
2022-10-31T06:13:09.181Z,39.67
2022-10-31T06:15:35.834Z,34.67
2022-10-31T06:18:04.188Z,38.75
2022-10-31T06:20:31.077Z,36.15
2022-10-31T06:22:57.832Z,37.10
2022-10-31T06:25:25.641Z,33.28
2022-10-31T06:27:52.240Z,39.38
2022-10-31T06:30:18.801Z,31.60
2022-10-31T06:32:45.762Z,32.50
2022-10-31T06:35:12.651Z,33.92
2022-10-31T06:37:39.731Z,32.13
2022-10-31T06:40:09.746Z,31.48
2022-10-31T06:42:36.420Z,29.90
2022-10-31T06:45:03.179Z,26.95
2022-10-31T06:47:30.047Z,30.52
2022-10-31T06:49:56.764Z,33.15
2022-10-31T06:52:24.446Z,29.85
2022-10-31T06:57:17.778Z,30.10
2022-10-31T06:59:44.547Z,30.12
2022-10-31T07:02:11.553Z,29.10
2022-10-31T07:04:38.258Z,28.00
2022-10-31T07:07:05.078Z,28.15
2022-10-31T07:09:31.967Z,29.47
2022-10-31T07:11:58.627Z,33.92
2022-10-31T07:14:25.220Z,31.48
2022-10-31T07:16:52.044Z,30.00
2022-10-31T07:19:18.766Z,28.97
2022-10-31T07:21:45.352Z,26.75
2022-10-31T07:24:11.986Z,27.75
2022-10-31T07:26:38.688Z,29.77
2022-10-31T07:29:05.318Z,30.02
2022-10-31T07:31:31.929Z,27.55
2022-10-31T07:33:58.648Z,30.90
2022-10-31T07:36:25.448Z,27.50
2022-10-31T07:38:52.089Z,26.47
2022-10-31T07:41:18.788Z,29.58
2022-10-31T07:43:45.483Z,29.17
2022-10-31T07:46:12.412Z,27.75
2022-10-31T07:48:39.351Z,27.37
2022-10-31T07:51:07.934Z,28.00
2022-10-31T07:53:34.539Z,32.10
2022-10-31T07:56:01.266Z,33.83
2022-10-31T07:58:27.901Z,34.80
2022-10-31T08:00:54.605Z,29.60
2022-10-31T08:03:21.309Z,34.73
2022-10-31T08:05:48.259Z,28.50
2022-10-31T08:08:15.050Z,28.05
2022-10-31T08:10:41.764Z,31.93
2022-10-31T08:13:10.600Z,29.85
2022-10-31T08:15:40.125Z,37.03
2022-10-31T08:18:07.393Z,35.25
2022-10-31T08:20:33.945Z,36.83
2022-10-31T08:23:04.506Z,37.10
2022-10-31T08:25:35.544Z,36.25
2022-10-31T08:28:05.357Z,32.15
2022-10-31T08:30:33.120Z,34.97
2022-10-31T08:33:04.318Z,35.67
2022-10-31T08:35:30.916Z,43.55
2022-10-31T08:37:58.132Z,45.35
2022-10-31T08:40:25.533Z,45.15
2022-10-31T08:43:02.573Z,46.50
2022-10-31T08:45:29.802Z,47.85
2022-10-31T08:48:05.200Z,45.15
2022-10-31T08:50:32.949Z,41.97
2022-10-31T08:53:07.188Z,45.95
2022-10-31T08:55:36.100Z,52.13
2022-10-31T08:58:03.337Z,49.47
2022-10-31T09:00:30.374Z,46.33
2022-10-31T09:03:01.141Z,52.23
2022-10-31T09:05:27.918Z,45.12
2022-10-31T09:08:02.035Z,41.97
2022-10-31T09:10:29.416Z,41.22
2022-10-31T09:13:08.704Z,43.75
2022-10-31T09:15:36.380Z,43.20
2022-10-31T09:20:30.148Z,38.70
2022-10-31T09:23:00.809Z,42.72
2022-10-31T09:25:27.589Z,45.03
2022-10-31T09:28:00.836Z,43.07
2022-10-31T09:30:31.647Z,46.10
2022-10-31T09:32:58.945Z,40.95
2022-10-31T09:35:26.048Z,43.35
2022-10-31T09:37:57.140Z,43.75
2022-10-31T09:40:38.701Z,47.72
2022-10-31T09:43:48.837Z,43.58
2022-10-31T09:46:17.889Z,43.97
2022-10-31T09:48:59.308Z,39.97
2022-10-31T09:51:38.156Z,42.80
2022-10-31T09:54:30.072Z,39.42
2022-10-31T09:56:57.957Z,45.92
2022-10-31T09:59:38.670Z,43.45
2022-10-31T10:02:09.397Z,47.95
2022-10-31T10:04:46.358Z,40.55
2022-10-31T10:07:20.535Z,39.28
2022-10-31T10:09:47.547Z,41.83
2022-10-31T10:24:48.091Z,39.67
2022-10-31T10:27:32.954Z,39.45
2022-10-31T10:30:09.206Z,36.78
2022-10-31T10:32:50.874Z,35.70
2022-10-31T10:35:30.471Z,39.15
2022-10-31T10:40:26.133Z,34.83
2022-10-31T10:46:32.685Z,36.78
2022-10-31T10:49:23.849Z,30.50
2022-10-31T10:55:26.213Z,32.28
2022-10-31T10:58:04.600Z,28.65
2022-10-31T11:00:33.435Z,30.50
2022-10-31T11:03:00.216Z,32.65
2022-10-31T11:05:43.410Z,30.60
2022-10-31T11:08:09.965Z,32.08
2022-10-31T11:10:36.584Z,33.80
2022-10-31T11:13:03.526Z,28.67
2022-10-31T11:15:33.002Z,31.17
2022-10-31T11:17:59.566Z,25.88
2022-10-31T11:20:29.453Z,25.40
2022-10-31T11:23:02.942Z,26.70
2022-10-31T11:25:29.634Z,24.87
2022-10-31T11:28:05.259Z,25.50
2022-10-31T11:30:32.383Z,27.05
2022-10-31T11:32:59.280Z,27.15
2022-10-31T11:35:26.250Z,29.17
2022-10-31T11:37:59.751Z,29.60
2022-10-31T11:40:27.130Z,24.90
2022-10-31T11:42:56.325Z,22.42
2022-10-31T11:45:49.323Z,25.10
2022-10-31T11:48:20.868Z,27.10
2022-10-31T11:50:57.868Z,26.33
2022-10-31T11:53:31.736Z,30.20
2022-10-31T11:56:06.129Z,23.42
2022-10-31T11:58:32.689Z,24.80
2022-10-31T12:00:59.332Z,24.58
2022-10-31T12:03:41.686Z,28.12
2022-10-31T12:06:32.781Z,41.35
2022-10-31T12:08:59.399Z,25.40
2022-10-31T12:11:42.153Z,25.67
2022-10-31T12:14:30.485Z,23.15
2022-10-31T12:17:42.334Z,22.73
2022-10-31T12:20:22.938Z,23.35
2022-10-31T12:23:11.347Z,24.17
2022-10-31T12:26:16.551Z,24.70
2022-10-31T12:29:01.966Z,26.90
2022-10-31T12:32:09.875Z,25.42
2022-10-31T12:35:01.772Z,25.92
2022-10-31T12:37:33.941Z,24.65
2022-10-31T12:40:12.349Z,26.40
2022-10-31T12:42:45.555Z,25.62
2022-10-31T12:45:19.900Z,22.50
2022-10-31T12:47:58.309Z,24.10
2022-10-31T12:53:25.054Z,24.48
2022-10-31T12:55:56.965Z,24.75
2022-10-31T12:58:35.137Z,22.02
2022-10-31T13:01:09.550Z,23.05
2022-10-31T13:03:51.343Z,24.02
2022-10-31T13:06:20.900Z,25.60
2022-10-31T13:08:51.211Z,21.60
2022-10-31T13:11:33.579Z,21.65
2022-10-31T13:14:15.165Z,21.00
2022-10-31T13:16:43.915Z,19.27
2022-10-31T13:19:31.525Z,23.65
2022-10-31T13:22:08.627Z,28.98
2022-10-31T13:24:37.968Z,25.50
2022-10-31T13:27:27.639Z,24.48
2022-10-31T13:30:20.222Z,20.37
2022-10-31T13:32:56.182Z,21.23
2022-10-31T13:35:52.703Z,20.70
2022-10-31T13:38:37.222Z,23.58
2022-10-31T13:41:18.014Z,22.55
2022-10-31T13:44:01.497Z,23.15
2022-10-31T13:46:34.117Z,19.85
2022-10-31T13:49:00.815Z,23.38
2022-10-31T13:51:29.457Z,21.48
2022-10-31T13:53:55.887Z,18.60
2022-10-31T13:56:24.036Z,24.50
2022-10-31T13:59:02.033Z,22.37
2022-10-31T14:01:30.016Z,23.62
2022-10-31T14:04:13.964Z,20.85
2022-10-31T14:06:58.346Z,25.12
2022-10-31T14:09:29.113Z,22.15
2022-10-31T14:11:55.857Z,26.65
2022-10-31T14:14:23.393Z,20.95
2022-10-31T14:16:55.797Z,24.00
2022-10-31T14:19:22.543Z,21.27
2022-10-31T14:21:49.741Z,21.35
2022-10-31T14:24:25.453Z,25.30
2022-10-31T14:26:53.716Z,25.42
2022-10-31T14:29:22.066Z,24.15
2022-10-31T14:32:13.780Z,24.33
2022-10-31T14:34:58.556Z,24.33
2022-10-31T14:37:52.358Z,24.37
2022-10-31T14:40:41.220Z,25.30
2022-10-31T14:43:27.448Z,31.90
2022-10-31T14:46:16.082Z,25.37
2022-10-31T14:49:00.361Z,28.80
2022-10-31T14:51:48.447Z,25.35
2022-10-31T14:54:28.458Z,24.42
2022-10-31T14:56:56.602Z,26.37
2022-10-31T14:59:28.579Z,27.75
2022-10-31T15:02:00.169Z,26.58
2022-10-31T15:04:28.624Z,25.50
2022-10-31T15:07:24.621Z,28.20
2022-10-31T15:10:07.006Z,21.85
2022-10-31T15:12:39.610Z,23.50
2022-10-31T15:15:18.082Z,28.62
2022-10-31T15:17:57.567Z,30.58
2022-10-31T15:20:27.301Z,28.33
2022-10-31T15:22:55.907Z,27.62
2022-10-31T15:25:25.082Z,30.70
2022-10-31T15:27:53.104Z,29.30
2022-10-31T15:30:23.501Z,28.48
2022-10-31T15:32:57.485Z,29.27
2022-10-31T15:35:31.536Z,29.85
2022-10-31T15:37:59.223Z,25.83
2022-10-31T15:40:27.089Z,30.50
2022-10-31T15:43:03.281Z,25.60
2022-10-31T15:45:31.295Z,26.95
2022-10-31T15:47:58.718Z,30.88
2022-10-31T15:52:57.862Z,27.70
2022-10-31T15:55:29.108Z,26.85
2022-10-31T15:57:59.873Z,32.03
2022-10-31T16:00:26.524Z,31.52
2022-10-31T16:03:16.245Z,30.02
2022-10-31T16:06:04.963Z,30.27
2022-10-31T16:08:31.415Z,28.08
2022-10-31T16:11:04.114Z,29.08
2022-10-31T16:13:35.967Z,34.00
2022-10-31T16:16:33.052Z,32.40
2022-10-31T16:18:51.983Z,30.52
2022-10-31T16:21:25.229Z,29.92
2022-10-31T16:23:58.048Z,25.65
2022-10-31T16:26:24.920Z,29.37
2022-10-31T16:29:03.318Z,34.28
2022-10-31T16:31:40.134Z,35.22
2022-10-31T16:34:21.214Z,33.53
2022-10-31T16:36:50.558Z,34.10
2022-10-31T16:39:18.332Z,32.63
2022-10-31T16:44:22.402Z,35.08
2022-10-31T16:46:48.959Z,37.15
2022-10-31T16:49:16.540Z,33.47
2022-10-31T16:51:43.828Z,30.83
2022-10-31T16:54:11.794Z,37.25
2022-10-31T16:56:38.703Z,29.65
2022-10-31T16:59:06.624Z,29.80
2022-10-31T17:01:33.364Z,32.42
2022-10-31T17:04:00.361Z,37.23
2022-10-31T17:06:28.520Z,29.77
2022-10-31T17:08:55.464Z,32.40
2022-10-31T17:11:23.321Z,35.63
2022-10-31T17:16:16.382Z,28.42
2022-10-31T17:18:43.874Z,34.78
2022-10-31T17:21:13.404Z,28.85
2022-10-31T17:23:39.986Z,36.20
2022-10-31T17:26:08.739Z,31.95
2022-10-31T17:28:35.354Z,31.33
2022-10-31T17:31:01.945Z,31.75
2022-10-31T17:33:28.549Z,31.17
2022-10-31T17:35:55.174Z,31.10
2022-10-31T17:38:21.791Z,32.58
2022-10-31T17:43:14.929Z,26.30
2022-10-31T17:45:41.843Z,28.20
2022-10-31T17:48:11.168Z,28.27
2022-10-31T17:50:37.778Z,31.50
2022-10-31T17:53:04.686Z,31.48
2022-10-31T17:55:36.096Z,31.37
2022-10-31T17:58:04.241Z,33.85
2022-10-31T18:00:30.828Z,27.15
2022-10-31T18:02:57.502Z,34.10
2022-10-31T18:05:24.254Z,34.90
2022-10-31T18:07:51.186Z,31.98
2022-10-31T18:10:17.881Z,33.30
2022-10-31T18:12:44.480Z,29.98
2022-10-31T18:15:11.091Z,31.83
2022-10-31T18:17:41.046Z,35.08
2022-10-31T18:20:09.842Z,28.83
2022-10-31T18:22:36.440Z,34.40
2022-10-31T18:25:03.321Z,31.17
2022-10-31T18:27:29.909Z,37.13
2022-10-31T18:29:56.474Z,36.42
2022-10-31T18:32:23.229Z,35.90
2022-10-31T18:34:49.840Z,36.90
2022-10-31T18:37:16.436Z,39.95
2022-10-31T18:39:42.998Z,37.33
2022-10-31T18:42:09.569Z,35.60
2022-10-31T18:44:36.193Z,35.60
2022-10-31T18:47:02.796Z,41.33
2022-10-31T18:49:32.767Z,40.92
2022-10-31T18:51:59.960Z,42.67
2022-10-31T18:54:26.547Z,40.60
2022-10-31T18:56:53.180Z,40.55
2022-10-31T18:59:19.718Z,45.58
2022-10-31T19:01:46.813Z,39.83
2022-10-31T19:04:13.752Z,41.83
2022-10-31T19:06:40.351Z,41.77
2022-10-31T19:09:09.454Z,43.97
2022-10-31T19:11:36.590Z,41.55
2022-10-31T19:14:03.279Z,39.80
2022-10-31T19:16:29.864Z,40.88
2022-10-31T19:18:57.442Z,42.78
2022-10-31T19:21:24.120Z,37.63
2022-10-31T19:23:52.247Z,45.10
2022-10-31T19:26:18.848Z,43.53
2022-10-31T19:28:45.418Z,42.00
2022-10-31T19:31:12.009Z,38.92
2022-10-31T19:33:38.713Z,38.22
2022-10-31T19:36:08.123Z,42.25
2022-10-31T19:38:35.513Z,38.10
2022-10-31T19:41:03.758Z,37.67
2022-10-31T19:43:30.427Z,40.47
2022-10-31T19:46:01.225Z,37.70
2022-10-31T19:48:27.872Z,39.20
2022-10-31T19:50:58.669Z,35.08
2022-10-31T19:53:25.350Z,38.00
2022-10-31T19:55:51.930Z,37.72
2022-10-31T19:58:18.682Z,48.75
2022-10-31T20:00:45.352Z,44.20
2022-10-31T20:03:12.108Z,40.70
2022-10-31T20:05:41.885Z,40.10
2022-10-31T20:08:12.806Z,54.00
2022-10-31T20:10:39.335Z,47.25
2022-10-31T20:13:05.944Z,49.67
2022-10-31T20:15:33.688Z,41.70
2022-10-31T20:20:26.711Z,50.92
2022-10-31T20:22:53.344Z,45.97
2022-10-31T20:25:19.976Z,46.88
2022-10-31T20:27:46.636Z,50.25
2022-10-31T20:30:13.476Z,50.85
2022-10-31T20:32:40.085Z,47.27
2022-10-31T20:35:06.940Z,47.33
2022-10-31T20:37:33.516Z,45.63
2022-10-31T20:40:04.226Z,45.95
2022-10-31T20:42:30.858Z,47.58
2022-10-31T20:44:57.383Z,54.28
2022-10-31T20:47:25.872Z,61.35
2022-10-31T20:49:52.569Z,48.38
2022-10-31T20:52:19.227Z,48.28
2022-10-31T20:54:45.779Z,48.25
2022-10-31T20:57:12.337Z,47.45
2022-10-31T20:59:38.910Z,47.62
2022-10-31T21:02:05.623Z,50.92
2022-10-31T21:04:32.249Z,45.25
2022-10-31T21:06:58.873Z,52.00
2022-10-31T21:09:25.484Z,54.47
2022-10-31T21:11:52.048Z,48.53
2022-10-31T21:14:19.066Z,53.90
2022-10-31T21:16:45.767Z,49.00
2022-10-31T21:19:12.969Z,50.08
2022-10-31T21:21:39.707Z,55.90
2022-10-31T21:24:08.318Z,47.72
2022-10-31T21:26:37.121Z,56.70
2022-10-31T21:29:04.435Z,45.83
2022-10-31T21:31:31.429Z,42.55
2022-10-31T21:33:58.098Z,49.72
2022-10-31T21:36:26.210Z,49.30
2022-10-31T21:38:53.256Z,50.17
2022-10-31T21:41:20.258Z,50.95
2022-10-31T21:43:48.432Z,44.28
2022-10-31T21:46:19.273Z,44.63
2022-10-31T21:48:46.180Z,46.58
2022-10-31T21:51:17.393Z,49.43
2022-10-31T21:54:02.505Z,49.72
2022-10-31T21:56:29.235Z,50.75
2022-10-31T21:58:55.786Z,45.30
2022-10-31T22:01:23.203Z,47.17
2022-10-31T22:03:49.822Z,47.72
2022-10-31T22:06:16.579Z,49.08
2022-10-31T22:08:43.238Z,43.03
2022-10-31T22:11:13.632Z,47.08
2022-10-31T22:13:40.647Z,52.53
2022-10-31T22:16:12.340Z,50.08
2022-10-31T22:18:39.227Z,50.30
2022-10-31T22:21:16.567Z,48.73
2022-10-31T22:23:43.326Z,55.67
2022-10-31T22:26:14.535Z,57.33
2022-10-31T22:28:41.989Z,51.72
2022-10-31T22:31:09.585Z,46.28
2022-10-31T22:33:36.676Z,52.05
2022-10-31T22:36:07.915Z,48.35
2022-10-31T22:38:35.224Z,46.00
2022-10-31T22:41:02.029Z,49.35
2022-10-31T22:43:28.643Z,50.37
2022-10-31T22:46:04.998Z,38.13
2022-10-31T22:48:34.324Z,45.78
2022-10-31T22:51:08.496Z,43.85
2022-10-31T22:53:35.415Z,45.42
2022-10-31T22:56:02.449Z,41.50
2022-10-31T22:58:29.539Z,45.00
2022-10-31T23:00:56.493Z,44.75
2022-10-31T23:03:23.662Z,45.95
2022-10-31T23:05:57.272Z,49.28
2022-10-31T23:08:24.085Z,38.42
2022-10-31T23:10:51.052Z,42.43
2022-10-31T23:13:36.551Z,41.30
2022-10-31T23:16:12.818Z,42.30
2022-10-31T23:18:54.500Z,41.20
2022-10-31T23:21:43.959Z,40.17
2022-10-31T23:24:13.862Z,47.25
2022-10-31T23:26:59.236Z,39.63
2022-10-31T23:29:25.820Z,42.72
2022-10-31T23:31:54.593Z,42.83
2022-10-31T23:34:22.156Z,49.67
2022-10-31T23:36:49.158Z,48.00
2022-10-31T23:39:17.090Z,49.65
2022-10-31T23:41:44.481Z,46.40
2022-10-31T23:44:11.202Z,49.03
2022-10-31T23:46:37.792Z,52.40
2022-10-31T23:49:04.538Z,56.83
2022-10-31T23:51:31.358Z,44.58
2022-10-31T23:53:57.944Z,57.20
2022-10-31T23:56:24.511Z,50.80
2022-10-31T23:58:51.407Z,52.15
